sensor_id;sensor_type;location;lat;lon;timestamp;temperature;humidity
12413;DHT22;13877;18.896;-99.222;2022-08-05T00:00:20;27.00;62.10
12413;DHT22;13877;18.896;-99.222;2022-08-05T00:02:47;27.00;62.10
12413;DHT22;13877;18.896;-99.222;2022-08-05T00:05:15;27.00;62.00
12413;DHT22;13877;18.896;-99.222;2022-08-05T00:07:41;26.90;62.10
12413;DHT22;13877;18.896;-99.222;2022-08-05T00:10:08;26.90;62.40
12413;DHT22;13877;18.896;-99.222;2022-08-05T00:12:35;26.80;62.60
12413;DHT22;13877;18.896;-99.222;2022-08-05T00:15:03;26.70;63.10
12413;DHT22;13877;18.896;-99.222;2022-08-05T00:17:29;26.70;63.20
12413;DHT22;13877;18.896;-99.222;2022-08-05T00:19:56;26.60;63.50
12413;DHT22;13877;18.896;-99.222;2022-08-05T00:22:23;26.50;63.60
12413;DHT22;13877;18.896;-99.222;2022-08-05T00:24:50;26.50;63.80
12413;DHT22;13877;18.896;-99.222;2022-08-05T00:27:17;26.50;64.70
12413;DHT22;13877;18.896;-99.222;2022-08-05T00:29:44;26.50;63.90
12413;DHT22;13877;18.896;-99.222;2022-08-05T00:32:11;26.50;64.00
12413;DHT22;13877;18.896;-99.222;2022-08-05T00:34:39;26.50;64.40
12413;DHT22;13877;18.896;-99.222;2022-08-05T00:37:06;26.40;65.30
12413;DHT22;13877;18.896;-99.222;2022-08-05T00:39:33;26.40;64.90
12413;DHT22;13877;18.896;-99.222;2022-08-05T00:42:00;26.30;65.50
12413;DHT22;13877;18.896;-99.222;2022-08-05T00:44:27;26.30;66.00
12413;DHT22;13877;18.896;-99.222;2022-08-05T00:46:54;26.20;65.80
12413;DHT22;13877;18.896;-99.222;2022-08-05T00:49:21;26.10;66.80
12413;DHT22;13877;18.896;-99.222;2022-08-05T00:51:48;26.00;67.30
12413;DHT22;13877;18.896;-99.222;2022-08-05T00:54:15;25.90;67.70
12413;DHT22;13877;18.896;-99.222;2022-08-05T00:56:42;25.90;68.10
12413;DHT22;13877;18.896;-99.222;2022-08-05T00:59:09;25.80;68.40
12413;DHT22;13877;18.896;-99.222;2022-08-05T01:01:36;25.70;68.60
12413;DHT22;13877;18.896;-99.222;2022-08-05T01:04:03;25.60;69.10
12413;DHT22;13877;18.896;-99.222;2022-08-05T01:06:30;25.50;70.80
12413;DHT22;13877;18.896;-99.222;2022-08-05T01:08:57;25.40;69.00
12413;DHT22;13877;18.896;-99.222;2022-08-05T01:11:34;25.30;71.10
12413;DHT22;13877;18.896;-99.222;2022-08-05T01:14:46;25.20;71.50
12413;DHT22;13877;18.896;-99.222;2022-08-05T01:17:31;24.90;72.80
12413;DHT22;13877;18.896;-99.222;2022-08-05T01:25:36;24.50;74.40
12413;DHT22;13877;18.896;-99.222;2022-08-05T01:28:12;24.50;74.90
12413;DHT22;13877;18.896;-99.222;2022-08-05T01:33:38;24.40;76.00
12413;DHT22;13877;18.896;-99.222;2022-08-05T01:36:14;24.20;76.50
12413;DHT22;13877;18.896;-99.222;2022-08-05T01:38:43;24.10;77.20
12413;DHT22;13877;18.896;-99.222;2022-08-05T01:41:13;24.20;77.70
12413;DHT22;13877;18.896;-99.222;2022-08-05T01:43:42;24.30;77.00
12413;DHT22;13877;18.896;-99.222;2022-08-05T01:46:09;24.30;75.50
12413;DHT22;13877;18.896;-99.222;2022-08-05T01:48:37;24.20;74.80
12413;DHT22;13877;18.896;-99.222;2022-08-05T01:51:05;24.30;75.60
12413;DHT22;13877;18.896;-99.222;2022-08-05T01:53:34;24.40;75.70
12413;DHT22;13877;18.896;-99.222;2022-08-05T01:56:04;24.40;75.00
12413;DHT22;13877;18.896;-99.222;2022-08-05T01:58:32;24.50;75.60
12413;DHT22;13877;18.896;-99.222;2022-08-05T02:01:02;24.40;76.40
12413;DHT22;13877;18.896;-99.222;2022-08-05T02:03:38;24.40;77.10
12413;DHT22;13877;18.896;-99.222;2022-08-05T02:06:07;24.40;76.70
12413;DHT22;13877;18.896;-99.222;2022-08-05T02:08:34;24.40;76.70
12413;DHT22;13877;18.896;-99.222;2022-08-05T02:11:05;24.20;76.90
12413;DHT22;13877;18.896;-99.222;2022-08-05T02:13:53;24.10;77.70
12413;DHT22;13877;18.896;-99.222;2022-08-05T02:16:31;23.80;77.70
12413;DHT22;13877;18.896;-99.222;2022-08-05T02:21:38;23.60;79.80
12413;DHT22;13877;18.896;-99.222;2022-08-05T02:24:10;23.60;79.90
12413;DHT22;13877;18.896;-99.222;2022-08-05T02:26:49;23.70;80.10
12413;DHT22;13877;18.896;-99.222;2022-08-05T02:29:21;23.80;80.00
12413;DHT22;13877;18.896;-99.222;2022-08-05T02:31:50;23.70;80.20
12413;DHT22;13877;18.896;-99.222;2022-08-05T02:34:19;23.50;80.60
12413;DHT22;13877;18.896;-99.222;2022-08-05T02:36:53;23.40;81.50
12413;DHT22;13877;18.896;-99.222;2022-08-05T02:39:22;23.50;80.00
12413;DHT22;13877;18.896;-99.222;2022-08-05T02:41:50;23.90;74.80
12413;DHT22;13877;18.896;-99.222;2022-08-05T02:44:18;24.00;73.30
12413;DHT22;13877;18.896;-99.222;2022-08-05T02:46:47;24.10;72.10
12413;DHT22;13877;18.896;-99.222;2022-08-05T02:49:15;24.00;72.50
12413;DHT22;13877;18.896;-99.222;2022-08-05T02:51:43;23.90;73.00
12413;DHT22;13877;18.896;-99.222;2022-08-05T02:54:12;23.80;72.50
12413;DHT22;13877;18.896;-99.222;2022-08-05T02:56:42;23.80;72.10
12413;DHT22;13877;18.896;-99.222;2022-08-05T02:59:11;23.90;72.30
12413;DHT22;13877;18.896;-99.222;2022-08-05T03:01:42;23.80;72.50
12413;DHT22;13877;18.896;-99.222;2022-08-05T03:04:13;23.80;72.60
12413;DHT22;13877;18.896;-99.222;2022-08-05T03:06:42;23.70;73.10
12413;DHT22;13877;18.896;-99.222;2022-08-05T03:09:13;23.70;73.60
12413;DHT22;13877;18.896;-99.222;2022-08-05T03:11:43;23.60;73.90
12413;DHT22;13877;18.896;-99.222;2022-08-05T03:14:10;23.60;74.30
12413;DHT22;13877;18.896;-99.222;2022-08-05T03:16:37;23.60;74.80
12413;DHT22;13877;18.896;-99.222;2022-08-05T03:19:04;23.60;75.00
12413;DHT22;13877;18.896;-99.222;2022-08-05T03:21:31;23.60;75.00
12413;DHT22;13877;18.896;-99.222;2022-08-05T03:23:58;23.70;75.60
12413;DHT22;13877;18.896;-99.222;2022-08-05T03:26:26;23.60;75.70
12413;DHT22;13877;18.896;-99.222;2022-08-05T03:28:53;23.60;76.40
12413;DHT22;13877;18.896;-99.222;2022-08-05T03:31:20;23.60;76.10
12413;DHT22;13877;18.896;-99.222;2022-08-05T03:33:47;23.60;76.30
12413;DHT22;13877;18.896;-99.222;2022-08-05T03:36:14;23.70;77.10
12413;DHT22;13877;18.896;-99.222;2022-08-05T03:38:41;23.60;77.20
12413;DHT22;13877;18.896;-99.222;2022-08-05T03:41:08;23.60;76.30
12413;DHT22;13877;18.896;-99.222;2022-08-05T03:43:36;23.60;75.30
12413;DHT22;13877;18.896;-99.222;2022-08-05T03:46:03;23.70;75.00
12413;DHT22;13877;18.896;-99.222;2022-08-05T03:48:30;23.60;75.60
12413;DHT22;13877;18.896;-99.222;2022-08-05T03:51:17;23.60;74.70
12413;DHT22;13877;18.896;-99.222;2022-08-05T03:54:20;23.60;74.20
12413;DHT22;13877;18.896;-99.222;2022-08-05T03:56:49;23.50;75.40
12413;DHT22;13877;18.896;-99.222;2022-08-05T03:59:20;23.40;76.20
12413;DHT22;13877;18.896;-99.222;2022-08-05T04:01:50;23.30;75.70
12413;DHT22;13877;18.896;-99.222;2022-08-05T04:04:20;23.30;76.40
12413;DHT22;13877;18.896;-99.222;2022-08-05T04:06:48;23.30;77.80
12413;DHT22;13877;18.896;-99.222;2022-08-05T04:09:15;23.20;78.30
12413;DHT22;13877;18.896;-99.222;2022-08-05T04:11:43;23.20;78.60
12413;DHT22;13877;18.896;-99.222;2022-08-05T04:14:10;23.10;78.30
12413;DHT22;13877;18.896;-99.222;2022-08-05T04:16:38;23.10;78.20
12413;DHT22;13877;18.896;-99.222;2022-08-05T04:19:04;23.10;78.50
12413;DHT22;13877;18.896;-99.222;2022-08-05T04:21:31;23.00;79.70
12413;DHT22;13877;18.896;-99.222;2022-08-05T04:23:58;23.00;79.90
12413;DHT22;13877;18.896;-99.222;2022-08-05T04:26:25;23.10;79.10
12413;DHT22;13877;18.896;-99.222;2022-08-05T04:28:52;23.20;79.20
12413;DHT22;13877;18.896;-99.222;2022-08-05T04:31:19;23.20;79.30
12413;DHT22;13877;18.896;-99.222;2022-08-05T04:33:46;23.30;79.50
12413;DHT22;13877;18.896;-99.222;2022-08-05T04:36:13;23.30;79.70
12413;DHT22;13877;18.896;-99.222;2022-08-05T04:38:43;23.30;80.20
12413;DHT22;13877;18.896;-99.222;2022-08-05T04:41:11;23.40;80.00
12413;DHT22;13877;18.896;-99.222;2022-08-05T04:43:38;23.40;80.30
12413;DHT22;13877;18.896;-99.222;2022-08-05T04:46:06;23.40;80.50
12413;DHT22;13877;18.896;-99.222;2022-08-05T04:48:33;23.40;81.00
12413;DHT22;13877;18.896;-99.222;2022-08-05T04:51:01;23.20;80.40
12413;DHT22;13877;18.896;-99.222;2022-08-05T04:53:28;22.80;81.90
12413;DHT22;13877;18.896;-99.222;2022-08-05T04:55:56;22.50;83.70
12413;DHT22;13877;18.896;-99.222;2022-08-05T04:58:22;22.20;82.50
12413;DHT22;13877;18.896;-99.222;2022-08-05T05:00:49;22.10;81.00
12413;DHT22;13877;18.896;-99.222;2022-08-05T05:03:16;22.00;82.60
12413;DHT22;13877;18.896;-99.222;2022-08-05T05:05:43;21.80;82.50
12413;DHT22;13877;18.896;-99.222;2022-08-05T05:08:10;21.70;83.50
12413;DHT22;13877;18.896;-99.222;2022-08-05T05:10:42;21.60;82.70
12413;DHT22;13877;18.896;-99.222;2022-08-05T05:13:10;21.60;82.80
12413;DHT22;13877;18.896;-99.222;2022-08-05T05:15:37;21.60;82.70
12413;DHT22;13877;18.896;-99.222;2022-08-05T05:18:05;21.70;85.10
12413;DHT22;13877;18.896;-99.222;2022-08-05T05:20:33;21.70;86.40
12413;DHT22;13877;18.896;-99.222;2022-08-05T05:23:01;21.50;83.80
12413;DHT22;13877;18.896;-99.222;2022-08-05T05:25:32;21.30;83.60
12413;DHT22;13877;18.896;-99.222;2022-08-05T05:27:58;21.20;85.30
12413;DHT22;13877;18.896;-99.222;2022-08-05T05:30:26;21.30;85.40
12413;DHT22;13877;18.896;-99.222;2022-08-05T05:32:53;21.60;85.40
12413;DHT22;13877;18.896;-99.222;2022-08-05T05:35:20;21.80;85.30
12413;DHT22;13877;18.896;-99.222;2022-08-05T05:37:50;21.80;85.70
12413;DHT22;13877;18.896;-99.222;2022-08-05T08:59:25;18.20;96.40
12413;DHT22;13877;18.896;-99.222;2022-08-05T09:01:52;18.40;96.40
12413;DHT22;13877;18.896;-99.222;2022-08-05T09:08:00;18.60;95.60
12413;DHT22;13877;18.896;-99.222;2022-08-05T09:10:27;18.60;95.30
12413;DHT22;13877;18.896;-99.222;2022-08-05T09:12:55;18.60;95.40
12413;DHT22;13877;18.896;-99.222;2022-08-05T09:15:22;18.50;94.90
12413;DHT22;13877;18.896;-99.222;2022-08-05T09:17:50;18.50;95.10
12413;DHT22;13877;18.896;-99.222;2022-08-05T09:20:17;18.40;95.00
12413;DHT22;13877;18.896;-99.222;2022-08-05T09:23:04;18.30;94.90
12413;DHT22;13877;18.896;-99.222;2022-08-05T09:25:32;18.30;95.10
12413;DHT22;13877;18.896;-99.222;2022-08-05T09:28:25;18.20;95.00
12413;DHT22;13877;18.896;-99.222;2022-08-05T09:30:56;18.30;94.80
12413;DHT22;13877;18.896;-99.222;2022-08-05T09:33:24;18.20;94.90
12413;DHT22;13877;18.896;-99.222;2022-08-05T09:36:02;18.20;95.00
12413;DHT22;13877;18.896;-99.222;2022-08-05T09:38:30;18.20;95.10
12413;DHT22;13877;18.896;-99.222;2022-08-05T09:41:05;18.10;95.10
12413;DHT22;13877;18.896;-99.222;2022-08-05T09:43:35;18.10;95.00
12413;DHT22;13877;18.896;-99.222;2022-08-05T09:46:04;18.00;95.20
12413;DHT22;13877;18.896;-99.222;2022-08-05T09:48:35;18.00;95.20
12413;DHT22;13877;18.896;-99.222;2022-08-05T09:51:06;17.90;95.10
12413;DHT22;13877;18.896;-99.222;2022-08-05T09:53:49;17.90;94.80
12413;DHT22;13877;18.896;-99.222;2022-08-05T09:56:36;17.90;94.50
12413;DHT22;13877;18.896;-99.222;2022-08-05T09:59:23;17.90;94.40
12413;DHT22;13877;18.896;-99.222;2022-08-05T10:01:50;17.90;94.00
12413;DHT22;13877;18.896;-99.222;2022-08-05T10:04:17;17.90;94.20
12413;DHT22;13877;18.896;-99.222;2022-08-05T10:06:55;17.90;94.30
12413;DHT22;13877;18.896;-99.222;2022-08-05T10:09:22;17.80;94.10
12413;DHT22;13877;18.896;-99.222;2022-08-05T10:11:49;17.80;94.20
12413;DHT22;13877;18.896;-99.222;2022-08-05T10:14:25;17.70;93.90
12413;DHT22;13877;18.896;-99.222;2022-08-05T10:16:53;17.70;93.40
12413;DHT22;13877;18.896;-99.222;2022-08-05T10:19:25;17.70;93.40
12413;DHT22;13877;18.896;-99.222;2022-08-05T10:21:52;17.70;93.30
12413;DHT22;13877;18.896;-99.222;2022-08-05T10:24:20;17.70;93.10
12413;DHT22;13877;18.896;-99.222;2022-08-05T10:26:48;17.70;92.80
12413;DHT22;13877;18.896;-99.222;2022-08-05T10:29:17;17.70;92.70
12413;DHT22;13877;18.896;-99.222;2022-08-05T10:31:45;17.60;93.10
12413;DHT22;13877;18.896;-99.222;2022-08-05T10:34:12;17.50;93.00
12413;DHT22;13877;18.896;-99.222;2022-08-05T10:36:40;17.40;93.10
12413;DHT22;13877;18.896;-99.222;2022-08-05T10:39:16;17.40;93.80
12413;DHT22;13877;18.896;-99.222;2022-08-05T10:42:07;17.40;93.70
12413;DHT22;13877;18.896;-99.222;2022-08-05T10:44:35;17.40;93.10
12413;DHT22;13877;18.896;-99.222;2022-08-05T10:47:12;17.50;92.40
12413;DHT22;13877;18.896;-99.222;2022-08-05T10:49:59;17.40;92.30
12413;DHT22;13877;18.896;-99.222;2022-08-05T10:52:39;17.80;92.90
12413;DHT22;13877;18.896;-99.222;2022-08-05T10:55:10;17.60;93.00
12413;DHT22;13877;18.896;-99.222;2022-08-05T10:57:39;17.40;92.90
12413;DHT22;13877;18.896;-99.222;2022-08-05T11:03:08;17.40;91.90
12413;DHT22;13877;18.896;-99.222;2022-08-05T11:05:36;17.40;91.70
12413;DHT22;13877;18.896;-99.222;2022-08-05T11:08:08;17.40;91.50
12413;DHT22;13877;18.896;-99.222;2022-08-05T11:10:37;17.50;90.70
12413;DHT22;13877;18.896;-99.222;2022-08-05T11:13:05;17.60;90.30
12413;DHT22;13877;18.896;-99.222;2022-08-05T11:15:37;17.60;90.00
12413;DHT22;13877;18.896;-99.222;2022-08-05T11:18:30;17.50;89.50
12413;DHT22;13877;18.896;-99.222;2022-08-05T11:21:02;17.40;89.20
12413;DHT22;13877;18.896;-99.222;2022-08-05T11:28:39;17.50;88.70
12413;DHT22;13877;18.896;-99.222;2022-08-05T11:33:56;17.40;88.80
12413;DHT22;13877;18.896;-99.222;2022-08-05T11:36:48;17.40;88.40
12413;DHT22;13877;18.896;-99.222;2022-08-05T11:39:46;17.40;88.60
12413;DHT22;13877;18.896;-99.222;2022-08-05T11:42:13;17.30;88.60
12413;DHT22;13877;18.896;-99.222;2022-08-05T11:44:41;17.30;88.30
12413;DHT22;13877;18.896;-99.222;2022-08-05T11:47:08;17.20;88.40
12413;DHT22;13877;18.896;-99.222;2022-08-05T11:49:36;17.10;88.90
12413;DHT22;13877;18.896;-99.222;2022-08-05T11:52:03;17.20;88.20
12413;DHT22;13877;18.896;-99.222;2022-08-05T11:54:31;17.20;89.00
12413;DHT22;13877;18.896;-99.222;2022-08-05T11:57:02;17.00;89.40
12413;DHT22;13877;18.896;-99.222;2022-08-05T11:59:29;17.00;88.60
12413;DHT22;13877;18.896;-99.222;2022-08-05T12:04:36;17.10;88.70
12413;DHT22;13877;18.896;-99.222;2022-08-05T12:07:04;17.20;88.50
12413;DHT22;13877;18.896;-99.222;2022-08-05T12:09:39;17.10;88.00
12413;DHT22;13877;18.896;-99.222;2022-08-05T12:12:08;17.00;88.70
12413;DHT22;13877;18.896;-99.222;2022-08-05T12:14:36;16.90;87.10
12413;DHT22;13877;18.896;-99.222;2022-08-05T12:17:12;17.00;86.30
12413;DHT22;13877;18.896;-99.222;2022-08-05T12:19:51;17.00;85.00
12413;DHT22;13877;18.896;-99.222;2022-08-05T12:22:20;17.00;83.80
12413;DHT22;13877;18.896;-99.222;2022-08-05T12:24:49;17.00;83.40
12413;DHT22;13877;18.896;-99.222;2022-08-05T12:27:26;17.00;82.70
12413;DHT22;13877;18.896;-99.222;2022-08-05T12:30:12;17.10;82.20
12413;DHT22;13877;18.896;-99.222;2022-08-05T12:32:47;17.30;80.00
12413;DHT22;13877;18.896;-99.222;2022-08-05T12:35:16;17.60;78.60
12413;DHT22;13877;18.896;-99.222;2022-08-05T12:37:45;17.80;77.50
12413;DHT22;13877;18.896;-99.222;2022-08-05T12:40:14;17.90;76.30
12413;DHT22;13877;18.896;-99.222;2022-08-05T12:42:41;17.80;76.00
12413;DHT22;13877;18.896;-99.222;2022-08-05T12:45:09;17.90;76.20
12413;DHT22;13877;18.896;-99.222;2022-08-05T12:47:37;18.00;74.10
12413;DHT22;13877;18.896;-99.222;2022-08-05T12:50:15;18.10;74.00
12413;DHT22;13877;18.896;-99.222;2022-08-05T12:52:56;18.00;74.00
12413;DHT22;13877;18.896;-99.222;2022-08-05T12:55:29;18.00;73.00
12413;DHT22;13877;18.896;-99.222;2022-08-05T12:57:57;18.10;71.60
12413;DHT22;13877;18.896;-99.222;2022-08-05T13:00:26;18.30;71.10
12413;DHT22;13877;18.896;-99.222;2022-08-05T13:02:55;18.50;70.70
12413;DHT22;13877;18.896;-99.222;2022-08-05T13:05:25;18.80;71.00
12413;DHT22;13877;18.896;-99.222;2022-08-05T13:07:56;19.00;69.60
12413;DHT22;13877;18.896;-99.222;2022-08-05T13:10:23;19.00;70.90
12413;DHT22;13877;18.896;-99.222;2022-08-05T13:12:50;19.00;69.10
12413;DHT22;13877;18.896;-99.222;2022-08-05T13:15:18;19.00;69.70
12413;DHT22;13877;18.896;-99.222;2022-08-05T13:17:53;19.10;69.70
12413;DHT22;13877;18.896;-99.222;2022-08-05T13:20:20;19.30;68.00
12413;DHT22;13877;18.896;-99.222;2022-08-05T13:22:49;19.50;67.10
12413;DHT22;13877;18.896;-99.222;2022-08-05T13:25:18;19.70;67.20
12413;DHT22;13877;18.896;-99.222;2022-08-05T13:27:50;19.90;64.90
12413;DHT22;13877;18.896;-99.222;2022-08-05T13:30:19;20.10;65.50
12413;DHT22;13877;18.896;-99.222;2022-08-05T13:32:51;20.10;65.50
12413;DHT22;13877;18.896;-99.222;2022-08-05T13:35:19;20.20;63.40
12413;DHT22;13877;18.896;-99.222;2022-08-05T13:37:47;20.40;63.80
12413;DHT22;13877;18.896;-99.222;2022-08-05T13:40:14;20.50;62.80
12413;DHT22;13877;18.896;-99.222;2022-08-05T13:42:42;20.60;63.40
12413;DHT22;13877;18.896;-99.222;2022-08-05T13:45:09;20.80;61.60
12413;DHT22;13877;18.896;-99.222;2022-08-05T13:47:37;20.90;61.10
12413;DHT22;13877;18.896;-99.222;2022-08-05T13:50:05;21.10;60.80
12413;DHT22;13877;18.896;-99.222;2022-08-05T13:52:33;21.30;59.70
12413;DHT22;13877;18.896;-99.222;2022-08-05T13:54:59;21.40;59.60
12413;DHT22;13877;18.896;-99.222;2022-08-05T13:57:27;21.50;58.70
12413;DHT22;13877;18.896;-99.222;2022-08-05T13:59:53;21.80;59.10
12413;DHT22;13877;18.896;-99.222;2022-08-05T14:02:20;22.00;59.60
12413;DHT22;13877;18.896;-99.222;2022-08-05T14:04:47;22.20;58.20
12413;DHT22;13877;18.896;-99.222;2022-08-05T14:07:34;22.30;59.90
12413;DHT22;13877;18.896;-99.222;2022-08-05T14:10:18;22.70;59.20
12413;DHT22;13877;18.896;-99.222;2022-08-05T14:12:45;22.90;58.90
12413;DHT22;13877;18.896;-99.222;2022-08-05T14:15:12;23.10;57.20
12413;DHT22;13877;18.896;-99.222;2022-08-05T14:17:39;23.30;57.50
12413;DHT22;13877;18.896;-99.222;2022-08-05T14:20:07;23.70;55.30
12413;DHT22;13877;18.896;-99.222;2022-08-05T14:22:34;24.10;58.60
12413;DHT22;13877;18.896;-99.222;2022-08-05T14:25:02;24.10;62.90
12413;DHT22;13877;18.896;-99.222;2022-08-05T14:27:28;23.90;64.00
12413;DHT22;13877;18.896;-99.222;2022-08-05T14:29:55;23.70;62.00
12413;DHT22;13877;18.896;-99.222;2022-08-05T14:32:22;24.10;62.60
12413;DHT22;13877;18.896;-99.222;2022-08-05T14:34:49;24.40;59.10
12413;DHT22;13877;18.896;-99.222;2022-08-05T14:37:16;24.40;58.20
12413;DHT22;13877;18.896;-99.222;2022-08-05T14:39:43;24.50;57.90
12413;DHT22;13877;18.896;-99.222;2022-08-05T14:42:10;24.20;59.40
12413;DHT22;13877;18.896;-99.222;2022-08-05T14:44:36;24.60;59.20
12413;DHT22;13877;18.896;-99.222;2022-08-05T14:47:04;24.60;60.60
12413;DHT22;13877;18.896;-99.222;2022-08-05T14:49:31;24.80;59.30
12413;DHT22;13877;18.896;-99.222;2022-08-05T14:51:58;24.80;58.40
12413;DHT22;13877;18.896;-99.222;2022-08-05T14:54:25;24.70;59.30
12413;DHT22;13877;18.896;-99.222;2022-08-05T14:56:53;24.70;59.50
12413;DHT22;13877;18.896;-99.222;2022-08-05T14:59:19;24.80;58.70
12413;DHT22;13877;18.896;-99.222;2022-08-05T15:01:47;24.80;58.40
12413;DHT22;13877;18.896;-99.222;2022-08-05T15:04:13;24.90;58.70
12413;DHT22;13877;18.896;-99.222;2022-08-05T15:06:40;25.00;60.20
12413;DHT22;13877;18.896;-99.222;2022-08-05T15:09:07;25.10;60.50
12413;DHT22;13877;18.896;-99.222;2022-08-05T15:11:34;25.10;56.50
12413;DHT22;13877;18.896;-99.222;2022-08-05T15:14:01;25.00;58.80
12413;DHT22;13877;18.896;-99.222;2022-08-05T15:16:29;25.10;59.20
12413;DHT22;13877;18.896;-99.222;2022-08-05T15:18:56;25.00;59.90
12413;DHT22;13877;18.896;-99.222;2022-08-05T15:21:24;25.20;56.40
12413;DHT22;13877;18.896;-99.222;2022-08-05T15:23:50;25.30;55.90
12413;DHT22;13877;18.896;-99.222;2022-08-05T15:26:18;25.40;56.10
12413;DHT22;13877;18.896;-99.222;2022-08-05T15:28:45;25.30;58.00
12413;DHT22;13877;18.896;-99.222;2022-08-05T15:31:12;25.70;59.40
12413;DHT22;13877;18.896;-99.222;2022-08-05T15:33:39;26.00;55.80
12413;DHT22;13877;18.896;-99.222;2022-08-05T15:36:06;25.90;55.00
12413;DHT22;13877;18.896;-99.222;2022-08-05T15:38:33;26.00;53.90
12413;DHT22;13877;18.896;-99.222;2022-08-05T15:41:00;25.80;52.60
12413;DHT22;13877;18.896;-99.222;2022-08-05T15:43:28;25.60;48.70
12413;DHT22;13877;18.896;-99.222;2022-08-05T15:45:54;25.30;51.60
12413;DHT22;13877;18.896;-99.222;2022-08-05T15:48:21;25.70;55.00
12413;DHT22;13877;18.896;-99.222;2022-08-05T15:50:48;26.10;55.10
12413;DHT22;13877;18.896;-99.222;2022-08-05T15:53:16;26.20;56.60
12413;DHT22;13877;18.896;-99.222;2022-08-05T15:55:43;26.20;55.90
12413;DHT22;13877;18.896;-99.222;2022-08-05T15:58:10;26.20;58.30
12413;DHT22;13877;18.896;-99.222;2022-08-05T16:00:36;26.20;55.40
12413;DHT22;13877;18.896;-99.222;2022-08-05T16:03:03;26.30;55.10
12413;DHT22;13877;18.896;-99.222;2022-08-05T16:05:30;26.10;57.20
12413;DHT22;13877;18.896;-99.222;2022-08-05T16:07:57;26.30;52.50
12413;DHT22;13877;18.896;-99.222;2022-08-05T16:10:24;26.20;56.90
12413;DHT22;13877;18.896;-99.222;2022-08-05T16:12:51;26.60;53.30
12413;DHT22;13877;18.896;-99.222;2022-08-05T16:15:18;26.90;52.00
12413;DHT22;13877;18.896;-99.222;2022-08-05T16:17:47;27.00;50.20
12413;DHT22;13877;18.896;-99.222;2022-08-05T16:20:14;26.80;52.20
12413;DHT22;13877;18.896;-99.222;2022-08-05T16:22:40;26.80;53.20
12413;DHT22;13877;18.896;-99.222;2022-08-05T16:25:07;27.20;52.70
12413;DHT22;13877;18.896;-99.222;2022-08-05T16:27:36;27.30;52.50
12413;DHT22;13877;18.896;-99.222;2022-08-05T16:30:03;27.20;51.80
12413;DHT22;13877;18.896;-99.222;2022-08-05T16:32:30;27.30;50.60
12413;DHT22;13877;18.896;-99.222;2022-08-05T16:34:57;27.30;51.10
12413;DHT22;13877;18.896;-99.222;2022-08-05T16:37:26;27.50;48.70
12413;DHT22;13877;18.896;-99.222;2022-08-05T16:39:53;27.50;49.70
12413;DHT22;13877;18.896;-99.222;2022-08-05T16:42:19;27.50;47.90
12413;DHT22;13877;18.896;-99.222;2022-08-05T16:44:46;27.50;48.20
12413;DHT22;13877;18.896;-99.222;2022-08-05T16:47:14;27.60;49.00
12413;DHT22;13877;18.896;-99.222;2022-08-05T16:49:41;27.70;49.10
12413;DHT22;13877;18.896;-99.222;2022-08-05T16:52:08;27.70;47.80
12413;DHT22;13877;18.896;-99.222;2022-08-05T16:54:35;27.80;49.60
12413;DHT22;13877;18.896;-99.222;2022-08-05T16:57:02;27.70;47.20
12413;DHT22;13877;18.896;-99.222;2022-08-05T16:59:29;27.60;47.50
12413;DHT22;13877;18.896;-99.222;2022-08-05T17:01:56;27.70;47.70
12413;DHT22;13877;18.896;-99.222;2022-08-05T17:04:24;27.60;47.70
12413;DHT22;13877;18.896;-99.222;2022-08-05T17:06:51;28.20;46.80
12413;DHT22;13877;18.896;-99.222;2022-08-05T17:09:19;28.70;46.70
12413;DHT22;13877;18.896;-99.222;2022-08-05T17:11:46;29.00;43.60
12413;DHT22;13877;18.896;-99.222;2022-08-05T17:14:13;28.70;45.80
12413;DHT22;13877;18.896;-99.222;2022-08-05T17:16:40;28.80;44.00
12413;DHT22;13877;18.896;-99.222;2022-08-05T17:19:06;28.90;46.00
12413;DHT22;13877;18.896;-99.222;2022-08-05T17:21:34;29.00;46.90
12413;DHT22;13877;18.896;-99.222;2022-08-05T17:24:00;29.00;46.40
12413;DHT22;13877;18.896;-99.222;2022-08-05T17:26:27;29.00;49.00
12413;DHT22;13877;18.896;-99.222;2022-08-05T17:28:55;29.10;44.90
12413;DHT22;13877;18.896;-99.222;2022-08-05T17:31:21;28.60;48.50
12413;DHT22;13877;18.896;-99.222;2022-08-05T17:33:48;28.30;47.50
12413;DHT22;13877;18.896;-99.222;2022-08-05T17:36:15;28.10;47.80
12413;DHT22;13877;18.896;-99.222;2022-08-05T17:38:42;28.30;45.50
12413;DHT22;13877;18.896;-99.222;2022-08-05T17:41:09;28.80;47.30
12413;DHT22;13877;18.896;-99.222;2022-08-05T17:43:36;29.30;44.20
12413;DHT22;13877;18.896;-99.222;2022-08-05T17:46:02;29.80;43.60
12413;DHT22;13877;18.896;-99.222;2022-08-05T17:48:29;29.40;43.60
12413;DHT22;13877;18.896;-99.222;2022-08-05T17:50:56;29.80;44.40
12413;DHT22;13877;18.896;-99.222;2022-08-05T17:53:23;30.20;42.20
12413;DHT22;13877;18.896;-99.222;2022-08-05T17:55:50;30.20;43.10
12413;DHT22;13877;18.896;-99.222;2022-08-05T17:58:17;29.70;44.10
12413;DHT22;13877;18.896;-99.222;2022-08-05T18:00:45;29.80;42.60
12413;DHT22;13877;18.896;-99.222;2022-08-05T18:03:13;30.10;43.20
12413;DHT22;13877;18.896;-99.222;2022-08-05T18:05:40;30.00;41.30
12413;DHT22;13877;18.896;-99.222;2022-08-05T18:08:07;29.90;41.40
12413;DHT22;13877;18.896;-99.222;2022-08-05T18:10:34;29.40;42.60
12413;DHT22;13877;18.896;-99.222;2022-08-05T18:13:01;29.90;43.50
12413;DHT22;13877;18.896;-99.222;2022-08-05T18:15:28;29.80;44.00
12413;DHT22;13877;18.896;-99.222;2022-08-05T18:17:55;29.80;46.50
12413;DHT22;13877;18.896;-99.222;2022-08-05T18:20:22;29.70;44.80
12413;DHT22;13877;18.896;-99.222;2022-08-05T18:22:49;29.30;44.60
12413;DHT22;13877;18.896;-99.222;2022-08-05T18:25:15;29.30;43.60
12413;DHT22;13877;18.896;-99.222;2022-08-05T18:27:42;29.60;42.40
12413;DHT22;13877;18.896;-99.222;2022-08-05T18:30:09;29.60;42.00
12413;DHT22;13877;18.896;-99.222;2022-08-05T18:32:37;29.70;45.10
12413;DHT22;13877;18.896;-99.222;2022-08-05T18:35:04;29.90;43.90
12413;DHT22;13877;18.896;-99.222;2022-08-05T18:37:31;30.10;43.10
12413;DHT22;13877;18.896;-99.222;2022-08-05T18:39:58;30.00;42.80
12413;DHT22;13877;18.896;-99.222;2022-08-05T18:42:25;29.70;43.40
12413;DHT22;13877;18.896;-99.222;2022-08-05T18:44:51;29.50;40.80
12413;DHT22;13877;18.896;-99.222;2022-08-05T18:47:18;29.80;42.20
12413;DHT22;13877;18.896;-99.222;2022-08-05T18:49:45;30.50;40.30
12413;DHT22;13877;18.896;-99.222;2022-08-05T18:52:31;31.20;39.60
12413;DHT22;13877;18.896;-99.222;2022-08-05T18:54:58;31.20;41.70
12413;DHT22;13877;18.896;-99.222;2022-08-05T18:57:26;31.30;42.40
12413;DHT22;13877;18.896;-99.222;2022-08-05T18:59:52;30.70;42.70
12413;DHT22;13877;18.896;-99.222;2022-08-05T19:02:19;30.80;40.80